sensor_id;sensor_type;location;lat;lon;timestamp;P1;durP1;ratioP1;P2;durP2;ratioP2
20462;SDS011;10390;53.566;9.980;2024-02-21T00:00:45;10.93;;;8.43;;
20462;SDS011;10390;53.566;9.980;2024-02-21T00:03:11;10.25;;;7.88;;
20462;SDS011;10390;53.566;9.980;2024-02-21T00:05:36;10.65;;;8.23;;
20462;SDS011;10390;53.566;9.980;2024-02-21T00:08:02;9.52;;;7.93;;
20462;SDS011;10390;53.566;9.980;2024-02-21T00:10:30;10.23;;;8.50;;
20462;SDS011;10390;53.566;9.980;2024-02-21T00:13:00;9.45;;;8.35;;
20462;SDS011;10390;53.566;9.980;2024-02-21T00:15:25;10.88;;;8.48;;
20462;SDS011;10390;53.566;9.980;2024-02-21T00:17:51;10.75;;;8.43;;
20462;SDS011;10390;53.566;9.980;2024-02-21T00:20:17;10.40;;;8.70;;
20462;SDS011;10390;53.566;9.980;2024-02-21T00:22:43;11.00;;;8.82;;
20462;SDS011;10390;53.566;9.980;2024-02-21T00:25:09;10.70;;;8.60;;
20462;SDS011;10390;53.566;9.980;2024-02-21T00:27:34;12.98;;;8.10;;
20462;SDS011;10390;53.566;9.980;2024-02-21T00:30:00;10.93;;;8.73;;
20462;SDS011;10390;53.566;9.980;2024-02-21T00:32:26;10.77;;;8.60;;
20462;SDS011;10390;53.566;9.980;2024-02-21T00:34:51;11.73;;;8.50;;
20462;SDS011;10390;53.566;9.980;2024-02-21T00:37:17;10.93;;;8.55;;
20462;SDS011;10390;53.566;9.980;2024-02-21T00:39:43;11.88;;;8.52;;
20462;SDS011;10390;53.566;9.980;2024-02-21T00:42:08;9.95;;;8.88;;
20462;SDS011;10390;53.566;9.980;2024-02-21T00:44:34;9.02;;;8.13;;
20462;SDS011;10390;53.566;9.980;2024-02-21T00:47:00;11.55;;;8.70;;
20462;SDS011;10390;53.566;9.980;2024-02-21T00:49:25;9.15;;;8.25;;
20462;SDS011;10390;53.566;9.980;2024-02-21T00:51:51;10.95;;;8.25;;
20462;SDS011;10390;53.566;9.980;2024-02-21T00:54:16;8.70;;;7.55;;
20462;SDS011;10390;53.566;9.980;2024-02-21T00:56:42;8.52;;;7.55;;
20462;SDS011;10390;53.566;9.980;2024-02-21T00:59:08;10.85;;;8.73;;
20462;SDS011;10390;53.566;9.980;2024-02-21T01:01:33;10.15;;;8.43;;
20462;SDS011;10390;53.566;9.980;2024-02-21T01:03:59;11.02;;;8.55;;
20462;SDS011;10390;53.566;9.980;2024-02-21T01:06:25;9.40;;;7.78;;
20462;SDS011;10390;53.566;9.980;2024-02-21T01:08:51;10.32;;;8.50;;
20462;SDS011;10390;53.566;9.980;2024-02-21T01:11:16;9.23;;;8.18;;
20462;SDS011;10390;53.566;9.980;2024-02-21T01:13:42;9.65;;;7.60;;
20462;SDS011;10390;53.566;9.980;2024-02-21T01:16:09;9.75;;;8.60;;
20462;SDS011;10390;53.566;9.980;2024-02-21T01:18:34;10.10;;;8.55;;
20462;SDS011;10390;53.566;9.980;2024-02-21T01:21:02;9.73;;;8.13;;
20462;SDS011;10390;53.566;9.980;2024-02-21T01:23:31;9.70;;;8.70;;
20462;SDS011;10390;53.566;9.980;2024-02-21T01:26:01;8.95;;;7.97;;
20462;SDS011;10390;53.566;9.980;2024-02-21T01:28:27;9.93;;;8.13;;
20462;SDS011;10390;53.566;9.980;2024-02-21T01:30:53;10.32;;;8.25;;
20462;SDS011;10390;53.566;9.980;2024-02-21T01:33:18;9.43;;;8.15;;
20462;SDS011;10390;53.566;9.980;2024-02-21T01:35:44;9.45;;;6.97;;
20462;SDS011;10390;53.566;9.980;2024-02-21T01:38:10;10.60;;;8.35;;
20462;SDS011;10390;53.566;9.980;2024-02-21T01:40:37;9.25;;;8.07;;
20462;SDS011;10390;53.566;9.980;2024-02-21T01:43:03;11.48;;;7.88;;
20462;SDS011;10390;53.566;9.980;2024-02-21T01:45:29;10.00;;;7.55;;
20462;SDS011;10390;53.566;9.980;2024-02-21T01:47:54;9.75;;;8.13;;
20462;SDS011;10390;53.566;9.980;2024-02-21T01:50:20;11.80;;;8.13;;
20462;SDS011;10390;53.566;9.980;2024-02-21T01:52:48;9.68;;;7.90;;
20462;SDS011;10390;53.566;9.980;2024-02-21T01:55:15;8.77;;;7.57;;
20462;SDS011;10390;53.566;9.980;2024-02-21T01:57:42;8.70;;;7.50;;
20462;SDS011;10390;53.566;9.980;2024-02-21T02:00:10;9.25;;;7.30;;
20462;SDS011;10390;53.566;9.980;2024-02-21T02:02:38;8.75;;;7.55;;
20462;SDS011;10390;53.566;9.980;2024-02-21T02:05:05;8.88;;;7.60;;
20462;SDS011;10390;53.566;9.980;2024-02-21T02:07:32;8.82;;;7.35;;
20462;SDS011;10390;53.566;9.980;2024-02-21T02:09:58;8.60;;;7.30;;
20462;SDS011;10390;53.566;9.980;2024-02-21T02:12:24;9.13;;;7.38;;
20462;SDS011;10390;53.566;9.980;2024-02-21T02:14:59;9.35;;;7.10;;
20462;SDS011;10390;53.566;9.980;2024-02-21T02:17:26;8.60;;;7.28;;
20462;SDS011;10390;53.566;9.980;2024-02-21T02:19:51;9.70;;;8.07;;
20462;SDS011;10390;53.566;9.980;2024-02-21T02:22:18;9.32;;;7.68;;
20462;SDS011;10390;53.566;9.980;2024-02-21T02:24:47;8.07;;;7.28;;
20462;SDS011;10390;53.566;9.980;2024-02-21T02:27:14;9.40;;;7.63;;
20462;SDS011;10390;53.566;9.980;2024-02-21T02:29:39;8.52;;;7.63;;
20462;SDS011;10390;53.566;9.980;2024-02-21T02:32:05;8.95;;;7.30;;
20462;SDS011;10390;53.566;9.980;2024-02-21T02:34:31;10.35;;;7.25;;
20462;SDS011;10390;53.566;9.980;2024-02-21T02:36:56;9.05;;;8.00;;
20462;SDS011;10390;53.566;9.980;2024-02-21T02:39:22;9.75;;;7.47;;
20462;SDS011;10390;53.566;9.980;2024-02-21T02:41:47;10.35;;;8.07;;
20462;SDS011;10390;53.566;9.980;2024-02-21T02:44:13;8.68;;;7.60;;
20462;SDS011;10390;53.566;9.980;2024-02-21T02:46:42;8.65;;;7.70;;
20462;SDS011;10390;53.566;9.980;2024-02-21T02:49:08;8.52;;;7.63;;
20462;SDS011;10390;53.566;9.980;2024-02-21T02:51:33;8.70;;;7.00;;
20462;SDS011;10390;53.566;9.980;2024-02-21T02:53:59;9.30;;;7.68;;
20462;SDS011;10390;53.566;9.980;2024-02-21T02:56:25;9.05;;;6.95;;
20462;SDS011;10390;53.566;9.980;2024-02-21T02:58:50;8.40;;;7.45;;
20462;SDS011;10390;53.566;9.980;2024-02-21T03:01:16;8.43;;;6.72;;
20462;SDS011;10390;53.566;9.980;2024-02-21T03:03:42;8.20;;;7.00;;
20462;SDS011;10390;53.566;9.980;2024-02-21T03:06:07;9.38;;;7.35;;
20462;SDS011;10390;53.566;9.980;2024-02-21T03:08:33;8.95;;;7.25;;
20462;SDS011;10390;53.566;9.980;2024-02-21T03:10:59;9.15;;;7.47;;
20462;SDS011;10390;53.566;9.980;2024-02-21T03:13:25;9.50;;;7.30;;
20462;SDS011;10390;53.566;9.980;2024-02-21T03:15:51;8.68;;;7.35;;
20462;SDS011;10390;53.566;9.980;2024-02-21T03:18:16;9.68;;;7.57;;
20462;SDS011;10390;53.566;9.980;2024-02-21T03:20:42;9.07;;;7.68;;
20462;SDS011;10390;53.566;9.980;2024-02-21T03:23:07;8.27;;;6.80;;
20462;SDS011;10390;53.566;9.980;2024-02-21T03:25:33;8.68;;;6.63;;
20462;SDS011;10390;53.566;9.980;2024-02-21T03:27:59;8.77;;;7.60;;
20462;SDS011;10390;53.566;9.980;2024-02-21T03:30:24;9.48;;;6.90;;
20462;SDS011;10390;53.566;9.980;2024-02-21T03:32:50;8.15;;;6.68;;
20462;SDS011;10390;53.566;9.980;2024-02-21T03:35:16;7.55;;;6.75;;
20462;SDS011;10390;53.566;9.980;2024-02-21T03:37:41;8.05;;;6.75;;
20462;SDS011;10390;53.566;9.980;2024-02-21T03:40:10;8.40;;;6.80;;
20462;SDS011;10390;53.566;9.980;2024-02-21T03:42:37;8.75;;;6.85;;
20462;SDS011;10390;53.566;9.980;2024-02-21T03:45:02;7.75;;;6.80;;
20462;SDS011;10390;53.566;9.980;2024-02-21T03:47:29;7.85;;;6.68;;
20462;SDS011;10390;53.566;9.980;2024-02-21T03:49:54;9.73;;;7.22;;
20462;SDS011;10390;53.566;9.980;2024-02-21T03:52:20;9.15;;;7.15;;
20462;SDS011;10390;53.566;9.980;2024-02-21T03:54:46;7.57;;;6.40;;
20462;SDS011;10390;53.566;9.980;2024-02-21T03:57:11;9.10;;;6.90;;
20462;SDS011;10390;53.566;9.980;2024-02-21T03:59:37;7.65;;;6.40;;
20462;SDS011;10390;53.566;9.980;2024-02-21T04:02:05;8.23;;;6.38;;
20462;SDS011;10390;53.566;9.980;2024-02-21T04:04:33;8.82;;;7.22;;
20462;SDS011;10390;53.566;9.980;2024-02-21T04:07:00;8.45;;;7.35;;
20462;SDS011;10390;53.566;9.980;2024-02-21T04:09:26;7.40;;;6.38;;
20462;SDS011;10390;53.566;9.980;2024-02-21T04:11:51;8.77;;;7.20;;
20462;SDS011;10390;53.566;9.980;2024-02-21T04:14:17;7.47;;;6.50;;
20462;SDS011;10390;53.566;9.980;2024-02-21T04:16:42;8.80;;;6.95;;
20462;SDS011;10390;53.566;9.980;2024-02-21T04:19:08;8.82;;;6.78;;
20462;SDS011;10390;53.566;9.980;2024-02-21T04:21:34;8.63;;;6.47;;
20462;SDS011;10390;53.566;9.980;2024-02-21T04:24:00;9.50;;;8.02;;
20462;SDS011;10390;53.566;9.980;2024-02-21T04:26:26;9.93;;;6.82;;
20462;SDS011;10390;53.566;9.980;2024-02-21T04:28:52;8.00;;;7.20;;
20462;SDS011;10390;53.566;9.980;2024-02-21T04:31:18;9.80;;;7.32;;
20462;SDS011;10390;53.566;9.980;2024-02-21T04:33:43;8.50;;;6.90;;
20462;SDS011;10390;53.566;9.980;2024-02-21T04:36:09;8.95;;;7.30;;
20462;SDS011;10390;53.566;9.980;2024-02-21T04:38:35;8.40;;;6.75;;
20462;SDS011;10390;53.566;9.980;2024-02-21T04:41:00;9.60;;;6.90;;
20462;SDS011;10390;53.566;9.980;2024-02-21T04:43:26;8.60;;;6.68;;
20462;SDS011;10390;53.566;9.980;2024-02-21T04:45:51;7.97;;;6.50;;
20462;SDS011;10390;53.566;9.980;2024-02-21T04:48:18;7.78;;;6.97;;
20462;SDS011;10390;53.566;9.980;2024-02-21T04:50:44;6.82;;;6.00;;
20462;SDS011;10390;53.566;9.980;2024-02-21T04:53:09;8.05;;;6.35;;
20462;SDS011;10390;53.566;9.980;2024-02-21T04:55:35;7.60;;;6.63;;
20462;SDS011;10390;53.566;9.980;2024-02-21T04:58:00;8.15;;;6.97;;
20462;SDS011;10390;53.566;9.980;2024-02-21T05:00:27;7.70;;;6.90;;
20462;SDS011;10390;53.566;9.980;2024-02-21T05:02:53;8.15;;;6.63;;
20462;SDS011;10390;53.566;9.980;2024-02-21T05:05:18;8.27;;;7.10;;
20462;SDS011;10390;53.566;9.980;2024-02-21T05:07:44;7.28;;;6.47;;
20462;SDS011;10390;53.566;9.980;2024-02-21T05:10:10;8.57;;;6.50;;
20462;SDS011;10390;53.566;9.980;2024-02-21T05:12:35;7.82;;;7.03;;
20462;SDS011;10390;53.566;9.980;2024-02-21T05:15:01;8.27;;;7.35;;
20462;SDS011;10390;53.566;9.980;2024-02-21T05:17:28;8.02;;;7.20;;
20462;SDS011;10390;53.566;9.980;2024-02-21T05:19:53;9.30;;;7.10;;
20462;SDS011;10390;53.566;9.980;2024-02-21T05:22:19;7.75;;;6.78;;
20462;SDS011;10390;53.566;9.980;2024-02-21T05:24:45;8.52;;;6.70;;
20462;SDS011;10390;53.566;9.980;2024-02-21T05:27:10;8.27;;;6.90;;
20462;SDS011;10390;53.566;9.980;2024-02-21T05:29:36;6.85;;;6.15;;
20462;SDS011;10390;53.566;9.980;2024-02-21T05:32:01;7.50;;;6.30;;
20462;SDS011;10390;53.566;9.980;2024-02-21T05:34:27;8.32;;;7.25;;
20462;SDS011;10390;53.566;9.980;2024-02-21T05:36:53;7.38;;;6.65;;
20462;SDS011;10390;53.566;9.980;2024-02-21T05:39:19;7.00;;;6.30;;
20462;SDS011;10390;53.566;9.980;2024-02-21T05:41:47;7.72;;;6.78;;
20462;SDS011;10390;53.566;9.980;2024-02-21T05:44:13;8.05;;;6.45;;
20462;SDS011;10390;53.566;9.980;2024-02-21T05:46:39;7.55;;;6.72;;
20462;SDS011;10390;53.566;9.980;2024-02-21T05:49:04;7.70;;;6.43;;
20462;SDS011;10390;53.566;9.980;2024-02-21T05:51:35;7.53;;;6.68;;
20462;SDS011;10390;53.566;9.980;2024-02-21T05:54:00;7.80;;;6.30;;
20462;SDS011;10390;53.566;9.980;2024-02-21T05:56:26;7.32;;;6.63;;
20462;SDS011;10390;53.566;9.980;2024-02-21T05:58:52;7.20;;;6.50;;
20462;SDS011;10390;53.566;9.980;2024-02-21T06:01:17;8.25;;;7.45;;
20462;SDS011;10390;53.566;9.980;2024-02-21T06:03:43;7.43;;;6.65;;
20462;SDS011;10390;53.566;9.980;2024-02-21T06:06:09;8.27;;;7.45;;
20462;SDS011;10390;53.566;9.980;2024-02-21T06:08:34;8.60;;;6.80;;
20462;SDS011;10390;53.566;9.980;2024-02-21T06:11:00;7.95;;;7.18;;
20462;SDS011;10390;53.566;9.980;2024-02-21T06:13:26;9.27;;;7.65;;
20462;SDS011;10390;53.566;9.980;2024-02-21T06:15:53;7.93;;;7.05;;
20462;SDS011;10390;53.566;9.980;2024-02-21T06:18:19;8.10;;;7.30;;
20462;SDS011;10390;53.566;9.980;2024-02-21T06:20:46;10.63;;;7.95;;
20462;SDS011;10390;53.566;9.980;2024-02-21T06:23:12;9.05;;;7.95;;
20462;SDS011;10390;53.566;9.980;2024-02-21T06:25:40;9.65;;;8.10;;
20462;SDS011;10390;53.566;9.980;2024-02-21T06:28:07;10.57;;;7.95;;
20462;SDS011;10390;53.566;9.980;2024-02-21T06:30:33;9.43;;;8.05;;
20462;SDS011;10390;53.566;9.980;2024-02-21T06:32:58;9.23;;;7.60;;
20462;SDS011;10390;53.566;9.980;2024-02-21T06:35:24;11.13;;;7.30;;
20462;SDS011;10390;53.566;9.980;2024-02-21T06:37:51;11.13;;;8.38;;
20462;SDS011;10390;53.566;9.980;2024-02-21T06:40:17;10.73;;;8.10;;
20462;SDS011;10390;53.566;9.980;2024-02-21T06:42:44;11.07;;;8.05;;
20462;SDS011;10390;53.566;9.980;2024-02-21T06:45:10;15.48;;;8.30;;
20462;SDS011;10390;53.566;9.980;2024-02-21T06:47:35;14.13;;;8.00;;
20462;SDS011;10390;53.566;9.980;2024-02-21T06:50:02;10.63;;;7.43;;
20462;SDS011;10390;53.566;9.980;2024-02-21T06:52:28;11.55;;;8.32;;
20462;SDS011;10390;53.566;9.980;2024-02-21T06:54:53;14.88;;;8.40;;
20462;SDS011;10390;53.566;9.980;2024-02-21T06:57:19;13.05;;;8.18;;
20462;SDS011;10390;53.566;9.980;2024-02-21T06:59:44;11.30;;;7.75;;
20462;SDS011;10390;53.566;9.980;2024-02-21T07:02:10;13.52;;;9.15;;
20462;SDS011;10390;53.566;9.980;2024-02-21T07:04:36;13.10;;;7.88;;
20462;SDS011;10390;53.566;9.980;2024-02-21T07:07:01;10.88;;;8.00;;
20462;SDS011;10390;53.566;9.980;2024-02-21T07:09:27;12.15;;;7.78;;
20462;SDS011;10390;53.566;9.980;2024-02-21T07:11:56;10.43;;;7.10;;
20462;SDS011;10390;53.566;9.980;2024-02-21T07:14:22;9.93;;;7.28;;
20462;SDS011;10390;53.566;9.980;2024-02-21T07:16:48;10.80;;;6.88;;
20462;SDS011;10390;53.566;9.980;2024-02-21T07:19:14;8.68;;;7.25;;
20462;SDS011;10390;53.566;9.980;2024-02-21T07:21:39;9.35;;;7.15;;
20462;SDS011;10390;53.566;9.980;2024-02-21T07:24:07;9.95;;;7.28;;
20462;SDS011;10390;53.566;9.980;2024-02-21T07:26:33;8.63;;;6.95;;
20462;SDS011;10390;53.566;9.980;2024-02-21T07:28:58;10.02;;;6.68;;
20462;SDS011;10390;53.566;9.980;2024-02-21T07:31:24;9.43;;;7.28;;
20462;SDS011;10390;53.566;9.980;2024-02-21T07:33:50;9.38;;;6.68;;
20462;SDS011;10390;53.566;9.980;2024-02-21T07:36:15;9.48;;;6.70;;
20462;SDS011;10390;53.566;9.980;2024-02-21T07:38:49;8.18;;;5.70;;
20462;SDS011;10390;53.566;9.980;2024-02-21T07:41:15;8.32;;;6.63;;
20462;SDS011;10390;53.566;9.980;2024-02-21T07:43:41;11.20;;;6.85;;
20462;SDS011;10390;53.566;9.980;2024-02-21T07:46:06;7.85;;;6.60;;
20462;SDS011;10390;53.566;9.980;2024-02-21T07:48:32;8.02;;;7.22;;
20462;SDS011;10390;53.566;9.980;2024-02-21T07:50:57;6.93;;;6.25;;
20462;SDS011;10390;53.566;9.980;2024-02-21T07:53:23;7.85;;;6.18;;
20462;SDS011;10390;53.566;9.980;2024-02-21T07:55:49;6.35;;;5.72;;
20462;SDS011;10390;53.566;9.980;2024-02-21T07:58:14;6.72;;;6.03;;
20462;SDS011;10390;53.566;9.980;2024-02-21T08:00:40;7.28;;;6.53;;
20462;SDS011;10390;53.566;9.980;2024-02-21T08:03:05;6.82;;;5.78;;
20462;SDS011;10390;53.566;9.980;2024-02-21T08:05:33;6.80;;;6.03;;
20462;SDS011;10390;53.566;9.980;2024-02-21T08:07:59;7.00;;;6.30;;
20462;SDS011;10390;53.566;9.980;2024-02-21T08:10:28;6.78;;;5.75;;
20462;SDS011;10390;53.566;9.980;2024-02-21T08:13:04;7.25;;;6.07;;
20462;SDS011;10390;53.566;9.980;2024-02-21T08:15:30;6.43;;;5.80;;
20462;SDS011;10390;53.566;9.980;2024-02-21T08:17:55;7.13;;;6.25;;
20462;SDS011;10390;53.566;9.980;2024-02-21T08:20:24;7.82;;;7.03;;
20462;SDS011;10390;53.566;9.980;2024-02-21T08:22:50;7.00;;;6.30;;
20462;SDS011;10390;53.566;9.980;2024-02-21T08:25:15;7.32;;;6.30;;
20462;SDS011;10390;53.566;9.980;2024-02-21T08:27:41;7.20;;;6.50;;
20462;SDS011;10390;53.566;9.980;2024-02-21T08:30:07;6.60;;;5.80;;
20462;SDS011;10390;53.566;9.980;2024-02-21T08:32:33;6.70;;;6.10;;
20462;SDS011;10390;53.566;9.980;2024-02-21T08:35:01;7.00;;;6.30;;
20462;SDS011;10390;53.566;9.980;2024-02-21T08:37:29;6.68;;;5.90;;
20462;SDS011;10390;53.566;9.980;2024-02-21T08:39:55;6.50;;;5.90;;
20462;SDS011;10390;53.566;9.980;2024-02-21T08:42:20;7.15;;;6.47;;
20462;SDS011;10390;53.566;9.980;2024-02-21T08:44:46;7.35;;;6.65;;
20462;SDS011;10390;53.566;9.980;2024-02-21T08:47:11;7.53;;;6.07;;
20462;SDS011;10390;53.566;9.980;2024-02-21T08:49:37;6.15;;;5.55;;
20462;SDS011;10390;53.566;9.980;2024-02-21T08:52:03;6.38;;;5.78;;
20462;SDS011;10390;53.566;9.980;2024-02-21T08:54:30;7.00;;;6.40;;
20462;SDS011;10390;53.566;9.980;2024-02-21T08:56:56;6.35;;;5.75;;
20462;SDS011;10390;53.566;9.980;2024-02-21T08:59:21;7.13;;;6.47;;
20462;SDS011;10390;53.566;9.980;2024-02-21T09:01:47;5.70;;;5.10;;
20462;SDS011;10390;53.566;9.980;2024-02-21T09:04:13;5.82;;;5.32;;
20462;SDS011;10390;53.566;9.980;2024-02-21T09:06:38;5.88;;;5.28;;
20462;SDS011;10390;53.566;9.980;2024-02-21T09:09:07;6.35;;;5.18;;
20462;SDS011;10390;53.566;9.980;2024-02-21T09:11:34;6.30;;;5.45;;
20462;SDS011;10390;53.566;9.980;2024-02-21T09:14:00;5.90;;;5.40;;
20462;SDS011;10390;53.566;9.980;2024-02-21T09:16:26;5.75;;;5.15;;
20462;SDS011;10390;53.566;9.980;2024-02-21T09:18:51;6.35;;;5.63;;
20462;SDS011;10390;53.566;9.980;2024-02-21T09:21:17;5.82;;;5.18;;
20462;SDS011;10390;53.566;9.980;2024-02-21T09:23:43;6.35;;;5.75;;
20462;SDS011;10390;53.566;9.980;2024-02-21T09:26:10;9.10;;;5.80;;
20462;SDS011;10390;53.566;9.980;2024-02-21T09:28:39;6.82;;;6.00;;
20462;SDS011;10390;53.566;9.980;2024-02-21T09:31:04;8.60;;;5.60;;
20462;SDS011;10390;53.566;9.980;2024-02-21T09:33:30;6.70;;;5.97;;
20462;SDS011;10390;53.566;9.980;2024-02-21T09:35:56;5.70;;;5.10;;
20462;SDS011;10390;53.566;9.980;2024-02-21T09:38:21;6.32;;;5.72;;
20462;SDS011;10390;53.566;9.980;2024-02-21T09:40:47;6.50;;;5.63;;
20462;SDS011;10390;53.566;9.980;2024-02-21T09:43:17;6.10;;;5.38;;
20462;SDS011;10390;53.566;9.980;2024-02-21T09:45:44;5.93;;;4.93;;
20462;SDS011;10390;53.566;9.980;2024-02-21T09:50:55;6.05;;;5.40;;
20462;SDS011;10390;53.566;9.980;2024-02-21T09:53:22;7.32;;;5.57;;
20462;SDS011;10390;53.566;9.980;2024-02-21T09:55:50;8.15;;;5.95;;
20462;SDS011;10390;53.566;9.980;2024-02-21T09:58:16;6.68;;;5.68;;
20462;SDS011;10390;53.566;9.980;2024-02-21T10:00:42;7.18;;;5.60;;
20462;SDS011;10390;53.566;9.980;2024-02-21T10:03:08;6.22;;;4.72;;
20462;SDS011;10390;53.566;9.980;2024-02-21T10:05:37;7.22;;;5.57;;
20462;SDS011;10390;53.566;9.980;2024-02-21T10:08:04;6.05;;;5.40;;
20462;SDS011;10390;53.566;9.980;2024-02-21T10:10:30;5.88;;;5.28;;
20462;SDS011;10390;53.566;9.980;2024-02-21T10:13:06;7.07;;;5.65;;
20462;SDS011;10390;53.566;9.980;2024-02-21T10:15:32;6.20;;;5.38;;
20462;SDS011;10390;53.566;9.980;2024-02-21T10:17:59;7.00;;;5.65;;
20462;SDS011;10390;53.566;9.980;2024-02-21T10:20:25;6.22;;;5.63;;
20462;SDS011;10390;53.566;9.980;2024-02-21T10:23:04;6.15;;;5.10;;
20462;SDS011;10390;53.566;9.980;2024-02-21T10:25:34;5.47;;;4.70;;
20462;SDS011;10390;53.566;9.980;2024-02-21T10:28:01;6.00;;;5.20;;
20462;SDS011;10390;53.566;9.980;2024-02-21T10:30:28;6.00;;;5.40;;
20462;SDS011;10390;53.566;9.980;2024-02-21T10:32:54;5.65;;;5.07;;
20462;SDS011;10390;53.566;9.980;2024-02-21T10:35:29;5.68;;;5.07;;
20462;SDS011;10390;53.566;9.980;2024-02-21T10:37:56;5.90;;;5.30;;
20462;SDS011;10390;53.566;9.980;2024-02-21T10:40:26;8.27;;;5.50;;
20462;SDS011;10390;53.566;9.980;2024-02-21T10:42:56;5.95;;;5.32;;
20462;SDS011;10390;53.566;9.980;2024-02-21T10:45:34;5.90;;;5.13;;
20462;SDS011;10390;53.566;9.980;2024-02-21T10:48:13;6.38;;;5.70;;
20462;SDS011;10390;53.566;9.980;2024-02-21T10:50:47;6.50;;;5.90;;
20462;SDS011;10390;53.566;9.980;2024-02-21T10:59:11;6.53;;;5.40;;
20462;SDS011;10390;53.566;9.980;2024-02-21T11:01:38;6.82;;;5.85;;
20462;SDS011;10390;53.566;9.980;2024-02-21T11:04:05;6.97;;;5.50;;
20462;SDS011;10390;53.566;9.980;2024-02-21T11:06:35;6.70;;;5.25;;
20462;SDS011;10390;53.566;9.980;2024-02-21T11:09:07;5.50;;;4.90;;
20462;SDS011;10390;53.566;9.980;2024-02-21T11:16:35;6.63;;;5.50;;
20462;SDS011;10390;53.566;9.980;2024-02-21T11:19:08;6.85;;;5.93;;
20462;SDS011;10390;53.566;9.980;2024-02-21T11:21:56;6.35;;;5.75;;
20462;SDS011;10390;53.566;9.980;2024-02-21T11:24:25;6.10;;;5.50;;
20462;SDS011;10390;53.566;9.980;2024-02-21T11:26:52;6.00;;;5.40;;
20462;SDS011;10390;53.566;9.980;2024-02-21T11:29:22;6.07;;;5.47;;
20462;SDS011;10390;53.566;9.980;2024-02-21T11:31:50;6.38;;;5.47;;
20462;SDS011;10390;53.566;9.980;2024-02-21T11:34:19;6.63;;;5.43;;
20462;SDS011;10390;53.566;9.980;2024-02-21T11:36:49;6.43;;;5.75;;
20462;SDS011;10390;53.566;9.980;2024-02-21T11:41:44;6.43;;;5.82;;
20462;SDS011;10390;53.566;9.980;2024-02-21T11:44:10;6.53;;;5.93;;
20462;SDS011;10390;53.566;9.980;2024-02-21T11:46:35;6.22;;;5.60;;
20462;SDS011;10390;53.566;9.980;2024-02-21T11:49:01;6.05;;;5.45;;
20462;SDS011;10390;53.566;9.980;2024-02-21T11:51:28;6.45;;;5.80;;
20462;SDS011;10390;53.566;9.980;2024-02-21T11:53:54;6.13;;;5.50;;
20462;SDS011;10390;53.566;9.980;2024-02-21T11:56:19;6.60;;;5.90;;
20462;SDS011;10390;53.566;9.980;2024-02-21T11:58:46;6.30;;;5.70;;
20462;SDS011;10390;53.566;9.980;2024-02-21T12:01:14;5.78;;;5.15;;
20462;SDS011;10390;53.566;9.980;2024-02-21T12:03:41;5.60;;;5.00;;
20462;SDS011;10390;53.566;9.980;2024-02-21T12:06:07;6.38;;;5.20;;
20462;SDS011;10390;53.566;9.980;2024-02-21T12:08:42;6.50;;;5.90;;
20462;SDS011;10390;53.566;9.980;2024-02-21T12:14:04;6.43;;;5.82;;
20462;SDS011;10390;53.566;9.980;2024-02-21T12:16:33;5.78;;;5.18;;
20462;SDS011;10390;53.566;9.980;2024-02-21T12:18:59;6.82;;;5.70;;
20462;SDS011;10390;53.566;9.980;2024-02-21T12:21:25;6.00;;;5.40;;
20462;SDS011;10390;53.566;9.980;2024-02-21T12:23:54;6.15;;;5.55;;
20462;SDS011;10390;53.566;9.980;2024-02-21T12:26:20;6.25;;;5.65;;
20462;SDS011;10390;53.566;9.980;2024-02-21T12:28:46;5.82;;;5.32;;
20462;SDS011;10390;53.566;9.980;2024-02-21T12:31:12;6.05;;;5.45;;
20462;SDS011;10390;53.566;9.980;2024-02-21T12:33:37;6.18;;;5.60;;
20462;SDS011;10390;53.566;9.980;2024-02-21T12:36:03;6.65;;;5.60;;
20462;SDS011;10390;53.566;9.980;2024-02-21T12:38:29;6.22;;;5.63;;
20462;SDS011;10390;53.566;9.980;2024-02-21T12:40:55;6.25;;;5.45;;
20462;SDS011;10390;53.566;9.980;2024-02-21T12:43:22;6.47;;;5.70;;
20462;SDS011;10390;53.566;9.980;2024-02-21T12:45:48;6.20;;;5.53;;
20462;SDS011;10390;53.566;9.980;2024-02-21T12:48:14;6.93;;;6.32;;
20462;SDS011;10390;53.566;9.980;2024-02-21T12:50:41;6.93;;;5.90;;
20462;SDS011;10390;53.566;9.980;2024-02-21T12:53:21;5.97;;;5.05;;
20462;SDS011;10390;53.566;9.980;2024-02-21T12:55:48;6.00;;;5.40;;
20462;SDS011;10390;53.566;9.980;2024-02-21T12:58:13;6.03;;;5.43;;
20462;SDS011;10390;53.566;9.980;2024-02-21T13:00:39;6.00;;;5.40;;
20462;SDS011;10390;53.566;9.980;2024-02-21T13:03:05;5.60;;;5.10;;
20462;SDS011;10390;53.566;9.980;2024-02-21T13:05:31;5.68;;;4.90;;
20462;SDS011;10390;53.566;9.980;2024-02-21T13:07:57;6.53;;;5.40;;
20462;SDS011;10390;53.566;9.980;2024-02-21T13:10:23;6.43;;;5.80;;
20462;SDS011;10390;53.566;9.980;2024-02-21T13:12:49;5.45;;;4.95;;
20462;SDS011;10390;53.566;9.980;2024-02-21T13:15:15;5.45;;;4.93;;
20462;SDS011;10390;53.566;9.980;2024-02-21T13:17:43;5.57;;;4.97;;
20462;SDS011;10390;53.566;9.980;2024-02-21T13:20:09;5.63;;;5.13;;
20462;SDS011;10390;53.566;9.980;2024-02-21T13:22:35;6.20;;;5.40;;
20462;SDS011;10390;53.566;9.980;2024-02-21T13:25:01;6.07;;;5.30;;
20462;SDS011;10390;53.566;9.980;2024-02-21T13:27:28;5.85;;;5.00;;
20462;SDS011;10390;53.566;9.980;2024-02-21T13:29:53;5.03;;;4.53;;
20462;SDS011;10390;53.566;9.980;2024-02-21T13:32:19;5.72;;;5.13;;
20462;SDS011;10390;53.566;9.980;2024-02-21T13:34:45;5.88;;;4.93;;
20462;SDS011;10390;53.566;9.980;2024-02-21T13:37:10;5.40;;;4.30;;
20462;SDS011;10390;53.566;9.980;2024-02-21T13:39:36;5.32;;;4.60;;
20462;SDS011;10390;53.566;9.980;2024-02-21T13:42:02;5.28;;;4.60;;
20462;SDS011;10390;53.566;9.980;2024-02-21T13:44:30;4.70;;;4.13;;
20462;SDS011;10390;53.566;9.980;2024-02-21T13:46:57;5.25;;;4.57;;
20462;SDS011;10390;53.566;9.980;2024-02-21T13:49:22;5.45;;;4.78;;
20462;SDS011;10390;53.566;9.980;2024-02-21T13:51:48;5.43;;;4.13;;
20462;SDS011;10390;53.566;9.980;2024-02-21T13:54:13;5.45;;;4.57;;
20462;SDS011;10390;53.566;9.980;2024-02-21T13:56:42;5.47;;;4.70;;
20462;SDS011;10390;53.566;9.980;2024-02-21T13:59:08;6.80;;;4.80;;
20462;SDS011;10390;53.566;9.980;2024-02-21T14:01:33;5.82;;;5.22;;
20462;SDS011;10390;53.566;9.980;2024-02-21T14:04:00;5.70;;;5.10;;
20462;SDS011;10390;53.566;9.980;2024-02-21T14:06:26;6.03;;;5.10;;
20462;SDS011;10390;53.566;9.980;2024-02-21T14:08:52;5.80;;;5.13;;
20462;SDS011;10390;53.566;9.980;2024-02-21T14:11:18;5.25;;;4.75;;
20462;SDS011;10390;53.566;9.980;2024-02-21T14:13:43;5.97;;;4.90;;
20462;SDS011;10390;53.566;9.980;2024-02-21T14:16:10;5.57;;;4.70;;
20462;SDS011;10390;53.566;9.980;2024-02-21T14:18:39;6.75;;;5.38;;
20462;SDS011;10390;53.566;9.980;2024-02-21T14:21:08;5.35;;;4.43;;
20462;SDS011;10390;53.566;9.980;2024-02-21T14:23:37;5.90;;;4.70;;
20462;SDS011;10390;53.566;9.980;2024-02-21T14:26:04;5.40;;;4.40;;
20462;SDS011;10390;53.566;9.980;2024-02-21T14:28:29;5.78;;;4.72;;
20462;SDS011;10390;53.566;9.980;2024-02-21T14:30:55;5.28;;;4.72;;
20462;SDS011;10390;53.566;9.980;2024-02-21T14:33:26;5.00;;;4.50;;
20462;SDS011;10390;53.566;9.980;2024-02-21T14:35:52;6.05;;;4.80;;
20462;SDS011;10390;53.566;9.980;2024-02-21T14:38:18;5.15;;;4.47;;
20462;SDS011;10390;53.566;9.980;2024-02-21T14:40:44;5.50;;;4.05;;
20462;SDS011;10390;53.566;9.980;2024-02-21T14:43:10;5.15;;;4.20;;
20462;SDS011;10390;53.566;9.980;2024-02-21T14:45:36;5.45;;;4.80;;
20462;SDS011;10390;53.566;9.980;2024-02-21T14:48:03;6.47;;;4.57;;
20462;SDS011;10390;53.566;9.980;2024-02-21T14:50:29;5.70;;;4.30;;
20462;SDS011;10390;53.566;9.980;2024-02-21T14:52:54;4.90;;;4.32;;
20462;SDS011;10390;53.566;9.980;2024-02-21T14:55:20;5.95;;;4.60;;
20462;SDS011;10390;53.566;9.980;2024-02-21T14:57:45;6.60;;;4.93;;
20462;SDS011;10390;53.566;9.980;2024-02-21T15:00:11;6.18;;;5.00;;